sensor_id;sensor_type;location;lat;lon;timestamp;temperature;humidity
7331;DHT22;3706;49.198;7.064;2024-03-06T00:00:15;2.00;99.90
7331;DHT22;3706;49.198;7.064;2024-03-06T00:02:42;1.90;99.90
7331;DHT22;3706;49.198;7.064;2024-03-06T00:05:10;1.70;99.90
7331;DHT22;3706;49.198;7.064;2024-03-06T00:07:37;1.80;99.90
7331;DHT22;3706;49.198;7.064;2024-03-06T00:10:04;1.60;99.90
7331;DHT22;3706;49.198;7.064;2024-03-06T00:12:31;1.60;99.90
7331;DHT22;3706;49.198;7.064;2024-03-06T00:14:58;1.70;99.90
7331;DHT22;3706;49.198;7.064;2024-03-06T00:17:25;1.70;99.90
7331;DHT22;3706;49.198;7.064;2024-03-06T00:19:52;1.70;99.90
7331;DHT22;3706;49.198;7.064;2024-03-06T00:22:21;1.70;99.90
7331;DHT22;3706;49.198;7.064;2024-03-06T00:24:48;1.60;99.90
7331;DHT22;3706;49.198;7.064;2024-03-06T00:27:15;1.60;99.90
7331;DHT22;3706;49.198;7.064;2024-03-06T00:29:42;1.70;99.90
7331;DHT22;3706;49.198;7.064;2024-03-06T00:32:09;1.90;99.90
7331;DHT22;3706;49.198;7.064;2024-03-06T00:34:36;1.80;99.90
7331;DHT22;3706;49.198;7.064;2024-03-06T00:37:03;1.70;99.90
7331;DHT22;3706;49.198;7.064;2024-03-06T00:39:31;1.70;99.90
7331;DHT22;3706;49.198;7.064;2024-03-06T00:41:58;1.60;99.90
7331;DHT22;3706;49.198;7.064;2024-03-06T00:44:25;1.60;99.90
7331;DHT22;3706;49.198;7.064;2024-03-06T00:46:52;1.60;99.90
7331;DHT22;3706;49.198;7.064;2024-03-06T00:49:19;1.60;99.90
7331;DHT22;3706;49.198;7.064;2024-03-06T00:51:46;1.50;99.90
7331;DHT22;3706;49.198;7.064;2024-03-06T00:54:13;1.30;99.90
7331;DHT22;3706;49.198;7.064;2024-03-06T00:56:41;1.40;99.90
7331;DHT22;3706;49.198;7.064;2024-03-06T00:59:08;1.80;99.90
7331;DHT22;3706;49.198;7.064;2024-03-06T01:01:36;2.00;99.90
7331;DHT22;3706;49.198;7.064;2024-03-06T01:04:03;2.20;99.90
7331;DHT22;3706;49.198;7.064;2024-03-06T01:06:30;2.20;99.90
7331;DHT22;3706;49.198;7.064;2024-03-06T01:08:57;2.20;99.90
7331;DHT22;3706;49.198;7.064;2024-03-06T01:11:24;2.00;99.90
7331;DHT22;3706;49.198;7.064;2024-03-06T01:13:54;1.70;99.90
7331;DHT22;3706;49.198;7.064;2024-03-06T01:16:21;1.60;99.90
7331;DHT22;3706;49.198;7.064;2024-03-06T01:18:48;1.40;99.90
7331;DHT22;3706;49.198;7.064;2024-03-06T01:21:15;1.20;99.90
7331;DHT22;3706;49.198;7.064;2024-03-06T01:23:42;1.30;99.90
7331;DHT22;3706;49.198;7.064;2024-03-06T01:26:09;1.30;99.90
7331;DHT22;3706;49.198;7.064;2024-03-06T01:28:37;1.20;99.90
7331;DHT22;3706;49.198;7.064;2024-03-06T01:31:05;1.40;99.90
7331;DHT22;3706;49.198;7.064;2024-03-06T01:33:32;1.60;99.90
7331;DHT22;3706;49.198;7.064;2024-03-06T01:35:59;1.60;99.90
7331;DHT22;3706;49.198;7.064;2024-03-06T01:38:27;1.70;99.90
7331;DHT22;3706;49.198;7.064;2024-03-06T01:40:54;1.80;99.90
7331;DHT22;3706;49.198;7.064;2024-03-06T01:43:22;1.90;99.90
7331;DHT22;3706;49.198;7.064;2024-03-06T01:45:49;1.90;99.90
7331;DHT22;3706;49.198;7.064;2024-03-06T01:48:20;2.00;99.90
7331;DHT22;3706;49.198;7.064;2024-03-06T01:50:48;2.00;99.90
7331;DHT22;3706;49.198;7.064;2024-03-06T01:53:16;1.90;99.90
7331;DHT22;3706;49.198;7.064;2024-03-06T01:55:45;1.90;99.90
7331;DHT22;3706;49.198;7.064;2024-03-06T01:58:12;2.00;99.90
7331;DHT22;3706;49.198;7.064;2024-03-06T02:00:39;2.20;99.90
7331;DHT22;3706;49.198;7.064;2024-03-06T02:03:07;2.30;99.90
7331;DHT22;3706;49.198;7.064;2024-03-06T02:05:36;2.30;99.90
7331;DHT22;3706;49.198;7.064;2024-03-06T02:08:03;2.30;99.90
7331;DHT22;3706;49.198;7.064;2024-03-06T02:10:31;2.20;99.90
7331;DHT22;3706;49.198;7.064;2024-03-06T02:12:58;1.90;99.90
7331;DHT22;3706;49.198;7.064;2024-03-06T02:15:25;1.80;99.90
7331;DHT22;3706;49.198;7.064;2024-03-06T02:17:52;1.60;99.90
7331;DHT22;3706;49.198;7.064;2024-03-06T02:20:23;1.60;99.90
7331;DHT22;3706;49.198;7.064;2024-03-06T02:22:50;1.40;99.90
7331;DHT22;3706;49.198;7.064;2024-03-06T02:25:17;1.30;99.90
7331;DHT22;3706;49.198;7.064;2024-03-06T02:27:45;1.30;99.90
7331;DHT22;3706;49.198;7.064;2024-03-06T02:30:13;1.20;99.90
7331;DHT22;3706;49.198;7.064;2024-03-06T02:32:40;1.20;99.90
7331;DHT22;3706;49.198;7.064;2024-03-06T02:35:09;1.20;99.90
7331;DHT22;3706;49.198;7.064;2024-03-06T02:37:37;1.10;99.90
7331;DHT22;3706;49.198;7.064;2024-03-06T02:40:06;1.00;99.90
7331;DHT22;3706;49.198;7.064;2024-03-06T02:42:35;0.90;99.90
7331;DHT22;3706;49.198;7.064;2024-03-06T02:45:05;1.00;99.90
7331;DHT22;3706;49.198;7.064;2024-03-06T02:47:32;1.10;99.90
7331;DHT22;3706;49.198;7.064;2024-03-06T02:49:59;1.20;99.90
7331;DHT22;3706;49.198;7.064;2024-03-06T02:52:26;1.20;99.90
7331;DHT22;3706;49.198;7.064;2024-03-06T02:54:54;1.10;99.90
7331;DHT22;3706;49.198;7.064;2024-03-06T02:57:21;1.00;99.90
7331;DHT22;3706;49.198;7.064;2024-03-06T02:59:48;0.90;99.90
7331;DHT22;3706;49.198;7.064;2024-03-06T03:02:15;0.90;99.90
7331;DHT22;3706;49.198;7.064;2024-03-06T03:04:43;0.90;99.90
7331;DHT22;3706;49.198;7.064;2024-03-06T03:07:10;0.90;99.90
7331;DHT22;3706;49.198;7.064;2024-03-06T03:09:37;0.90;99.90
7331;DHT22;3706;49.198;7.064;2024-03-06T03:12:06;1.00;99.90
7331;DHT22;3706;49.198;7.064;2024-03-06T03:14:33;1.00;99.90
7331;DHT22;3706;49.198;7.064;2024-03-06T03:17:00;1.20;99.90
7331;DHT22;3706;49.198;7.064;2024-03-06T03:19:27;1.20;99.90
7331;DHT22;3706;49.198;7.064;2024-03-06T03:21:55;1.40;99.90
7331;DHT22;3706;49.198;7.064;2024-03-06T03:24:21;1.30;99.90
7331;DHT22;3706;49.198;7.064;2024-03-06T03:26:49;1.30;99.90
7331;DHT22;3706;49.198;7.064;2024-03-06T03:29:19;1.30;99.90
7331;DHT22;3706;49.198;7.064;2024-03-06T03:31:46;1.30;99.90
7331;DHT22;3706;49.198;7.064;2024-03-06T03:34:13;1.30;99.90
7331;DHT22;3706;49.198;7.064;2024-03-06T03:36:41;1.30;99.90
7331;DHT22;3706;49.198;7.064;2024-03-06T03:39:09;1.40;99.90
7331;DHT22;3706;49.198;7.064;2024-03-06T03:41:43;1.40;99.90
7331;DHT22;3706;49.198;7.064;2024-03-06T03:44:11;1.40;99.90
7331;DHT22;3706;49.198;7.064;2024-03-06T03:46:39;1.40;99.90
7331;DHT22;3706;49.198;7.064;2024-03-06T03:49:06;1.50;99.90
7331;DHT22;3706;49.198;7.064;2024-03-06T03:51:34;1.40;99.90
7331;DHT22;3706;49.198;7.064;2024-03-06T03:54:01;1.30;99.90
7331;DHT22;3706;49.198;7.064;2024-03-06T03:56:28;1.20;99.90
7331;DHT22;3706;49.198;7.064;2024-03-06T03:58:56;1.10;99.90
7331;DHT22;3706;49.198;7.064;2024-03-06T04:01:23;1.20;99.90
7331;DHT22;3706;49.198;7.064;2024-03-06T04:03:52;1.20;99.90
7331;DHT22;3706;49.198;7.064;2024-03-06T04:06:19;1.20;99.90
7331;DHT22;3706;49.198;7.064;2024-03-06T04:08:46;1.30;99.90
7331;DHT22;3706;49.198;7.064;2024-03-06T04:11:12;1.30;99.90
7331;DHT22;3706;49.198;7.064;2024-03-06T04:13:39;1.30;99.90
7331;DHT22;3706;49.198;7.064;2024-03-06T04:16:06;1.40;99.90
7331;DHT22;3706;49.198;7.064;2024-03-06T04:18:33;1.50;99.90
7331;DHT22;3706;49.198;7.064;2024-03-06T04:21:04;1.60;99.90
7331;DHT22;3706;49.198;7.064;2024-03-06T04:23:32;1.70;99.90
7331;DHT22;3706;49.198;7.064;2024-03-06T04:25:59;1.70;99.90
7331;DHT22;3706;49.198;7.064;2024-03-06T04:28:26;1.80;99.90
7331;DHT22;3706;49.198;7.064;2024-03-06T04:30:54;1.80;99.90
7331;DHT22;3706;49.198;7.064;2024-03-06T04:33:21;1.80;99.90
7331;DHT22;3706;49.198;7.064;2024-03-06T04:35:48;1.90;99.90
7331;DHT22;3706;49.198;7.064;2024-03-06T04:38:16;1.80;99.90
7331;DHT22;3706;49.198;7.064;2024-03-06T04:40:43;1.80;99.90
7331;DHT22;3706;49.198;7.064;2024-03-06T04:43:11;1.70;99.90
7331;DHT22;3706;49.198;7.064;2024-03-06T04:45:37;1.70;99.90
7331;DHT22;3706;49.198;7.064;2024-03-06T04:48:05;1.40;99.90
7331;DHT22;3706;49.198;7.064;2024-03-06T04:50:33;1.30;99.90
7331;DHT22;3706;49.198;7.064;2024-03-06T04:52:59;1.10;99.90
7331;DHT22;3706;49.198;7.064;2024-03-06T04:55:28;1.00;99.90
7331;DHT22;3706;49.198;7.064;2024-03-06T04:57:56;1.00;99.90
7331;DHT22;3706;49.198;7.064;2024-03-06T05:00:24;1.00;99.90
7331;DHT22;3706;49.198;7.064;2024-03-06T05:02:51;0.90;99.90
7331;DHT22;3706;49.198;7.064;2024-03-06T05:05:18;0.90;99.90
7331;DHT22;3706;49.198;7.064;2024-03-06T05:07:45;0.80;99.90
7331;DHT22;3706;49.198;7.064;2024-03-06T05:10:11;0.80;99.90
7331;DHT22;3706;49.198;7.064;2024-03-06T05:12:40;0.80;99.90
7331;DHT22;3706;49.198;7.064;2024-03-06T05:15:07;0.90;99.90
7331;DHT22;3706;49.198;7.064;2024-03-06T05:17:34;1.10;99.90
7331;DHT22;3706;49.198;7.064;2024-03-06T05:20:02;1.10;99.90
7331;DHT22;3706;49.198;7.064;2024-03-06T05:22:29;1.20;99.90
7331;DHT22;3706;49.198;7.064;2024-03-06T05:24:57;1.30;99.90
7331;DHT22;3706;49.198;7.064;2024-03-06T05:27:24;1.30;99.90
7331;DHT22;3706;49.198;7.064;2024-03-06T05:29:53;1.40;99.90
7331;DHT22;3706;49.198;7.064;2024-03-06T05:32:20;1.50;99.90
7331;DHT22;3706;49.198;7.064;2024-03-06T05:34:47;1.70;99.90
7331;DHT22;3706;49.198;7.064;2024-03-06T05:37:14;1.80;99.90
7331;DHT22;3706;49.198;7.064;2024-03-06T05:39:41;1.80;99.90
7331;DHT22;3706;49.198;7.064;2024-03-06T05:42:08;1.80;99.90
7331;DHT22;3706;49.198;7.064;2024-03-06T05:44:35;1.70;99.90
7331;DHT22;3706;49.198;7.064;2024-03-06T05:47:03;1.60;99.90
7331;DHT22;3706;49.198;7.064;2024-03-06T05:49:32;1.50;99.90
7331;DHT22;3706;49.198;7.064;2024-03-06T05:52:00;1.40;99.90
7331;DHT22;3706;49.198;7.064;2024-03-06T05:54:28;1.50;99.90
7331;DHT22;3706;49.198;7.064;2024-03-06T05:56:59;1.60;99.90
7331;DHT22;3706;49.198;7.064;2024-03-06T05:59:26;1.50;99.90
7331;DHT22;3706;49.198;7.064;2024-03-06T06:01:54;1.60;99.90
7331;DHT22;3706;49.198;7.064;2024-03-06T06:04:22;1.80;99.90
7331;DHT22;3706;49.198;7.064;2024-03-06T06:06:49;2.10;99.90
7331;DHT22;3706;49.198;7.064;2024-03-06T06:09:16;2.30;99.90
7331;DHT22;3706;49.198;7.064;2024-03-06T06:11:43;2.40;99.90
7331;DHT22;3706;49.198;7.064;2024-03-06T06:14:11;2.50;99.90
7331;DHT22;3706;49.198;7.064;2024-03-06T06:16:38;2.50;99.90
7331;DHT22;3706;49.198;7.064;2024-03-06T06:19:06;2.60;99.90
7331;DHT22;3706;49.198;7.064;2024-03-06T06:21:35;2.70;99.90
7331;DHT22;3706;49.198;7.064;2024-03-06T06:24:03;3.00;99.90
7331;DHT22;3706;49.198;7.064;2024-03-06T06:26:30;3.10;99.90
7331;DHT22;3706;49.198;7.064;2024-03-06T06:28:57;3.00;99.90
7331;DHT22;3706;49.198;7.064;2024-03-06T06:31:24;3.10;99.90
7331;DHT22;3706;49.198;7.064;2024-03-06T06:33:52;3.20;99.90
7331;DHT22;3706;49.198;7.064;2024-03-06T06:36:19;3.00;99.90
7331;DHT22;3706;49.198;7.064;2024-03-06T06:38:48;3.00;99.90
7331;DHT22;3706;49.198;7.064;2024-03-06T06:41:16;2.90;99.90
7331;DHT22;3706;49.198;7.064;2024-03-06T06:43:44;2.70;99.90
7331;DHT22;3706;49.198;7.064;2024-03-06T06:46:12;2.40;99.90
7331;DHT22;3706;49.198;7.064;2024-03-06T06:48:38;2.20;99.90
7331;DHT22;3706;49.198;7.064;2024-03-06T06:51:05;2.10;99.90
7331;DHT22;3706;49.198;7.064;2024-03-06T06:53:33;2.00;99.90
7331;DHT22;3706;49.198;7.064;2024-03-06T06:56:01;2.10;99.90
7331;DHT22;3706;49.198;7.064;2024-03-06T06:58:28;2.20;99.90
7331;DHT22;3706;49.198;7.064;2024-03-06T07:00:55;2.40;99.90
7331;DHT22;3706;49.198;7.064;2024-03-06T07:03:22;2.60;99.90
7331;DHT22;3706;49.198;7.064;2024-03-06T07:05:55;2.60;99.90
7331;DHT22;3706;49.198;7.064;2024-03-06T07:08:22;2.70;99.90
7331;DHT22;3706;49.198;7.064;2024-03-06T07:10:49;2.80;99.90
7331;DHT22;3706;49.198;7.064;2024-03-06T07:13:17;3.00;99.90
7331;DHT22;3706;49.198;7.064;2024-03-06T07:15:44;3.20;99.90
7331;DHT22;3706;49.198;7.064;2024-03-06T07:18:11;3.40;99.90
7331;DHT22;3706;49.198;7.064;2024-03-06T07:20:39;3.70;99.90
7331;DHT22;3706;49.198;7.064;2024-03-06T07:23:07;3.80;99.90
7331;DHT22;3706;49.198;7.064;2024-03-06T07:25:34;3.80;99.90
7331;DHT22;3706;49.198;7.064;2024-03-06T07:28:01;4.00;99.90
7331;DHT22;3706;49.198;7.064;2024-03-06T07:30:31;4.10;99.90
7331;DHT22;3706;49.198;7.064;2024-03-06T07:32:57;4.30;99.90
7331;DHT22;3706;49.198;7.064;2024-03-06T07:35:24;4.30;99.90
7331;DHT22;3706;49.198;7.064;2024-03-06T07:37:51;4.60;99.90
7331;DHT22;3706;49.198;7.064;2024-03-06T07:40:18;4.70;99.90
7331;DHT22;3706;49.198;7.064;2024-03-06T07:42:45;4.90;99.90
7331;DHT22;3706;49.198;7.064;2024-03-06T07:45:12;5.10;99.90
7331;DHT22;3706;49.198;7.064;2024-03-06T07:47:41;5.20;99.90
7331;DHT22;3706;49.198;7.064;2024-03-06T07:50:09;5.40;99.90
7331;DHT22;3706;49.198;7.064;2024-03-06T07:52:37;5.60;99.90
7331;DHT22;3706;49.198;7.064;2024-03-06T07:55:04;5.90;99.90
7331;DHT22;3706;49.198;7.064;2024-03-06T07:57:32;5.80;99.90
7331;DHT22;3706;49.198;7.064;2024-03-06T07:59:59;6.00;99.90
7331;DHT22;3706;49.198;7.064;2024-03-06T08:02:26;6.20;99.90
7331;DHT22;3706;49.198;7.064;2024-03-06T08:04:55;6.50;99.90
7331;DHT22;3706;49.198;7.064;2024-03-06T08:07:22;6.70;99.90
7331;DHT22;3706;49.198;7.064;2024-03-06T08:09:49;7.10;99.90
7331;DHT22;3706;49.198;7.064;2024-03-06T08:12:16;7.50;99.90
7331;DHT22;3706;49.198;7.064;2024-03-06T08:14:43;8.00;99.90
7331;DHT22;3706;49.198;7.064;2024-03-06T08:17:10;8.30;99.90
7331;DHT22;3706;49.198;7.064;2024-03-06T08:19:37;8.70;99.90
7331;DHT22;3706;49.198;7.064;2024-03-06T08:22:06;8.90;99.90
7331;DHT22;3706;49.198;7.064;2024-03-06T08:24:33;9.10;99.90
7331;DHT22;3706;49.198;7.064;2024-03-06T08:27:00;9.40;99.90
7331;DHT22;3706;49.198;7.064;2024-03-06T08:29:27;9.80;99.90
7331;DHT22;3706;49.198;7.064;2024-03-06T08:31:54;10.30;99.90
7331;DHT22;3706;49.198;7.064;2024-03-06T08:34:23;10.70;99.90
7331;DHT22;3706;49.198;7.064;2024-03-06T08:36:50;11.00;99.90
7331;DHT22;3706;49.198;7.064;2024-03-06T08:39:20;11.30;99.90
7331;DHT22;3706;49.198;7.064;2024-03-06T08:41:47;11.70;99.90
7331;DHT22;3706;49.198;7.064;2024-03-06T08:44:14;12.10;99.90
7331;DHT22;3706;49.198;7.064;2024-03-06T08:46:41;12.60;99.90
7331;DHT22;3706;49.198;7.064;2024-03-06T08:49:08;13.50;99.90
7331;DHT22;3706;49.198;7.064;2024-03-06T08:51:36;14.40;99.90
7331;DHT22;3706;49.198;7.064;2024-03-06T08:54:03;15.10;99.90
7331;DHT22;3706;49.198;7.064;2024-03-06T08:56:31;15.10;99.90
7331;DHT22;3706;49.198;7.064;2024-03-06T08:58:59;14.30;99.90
7331;DHT22;3706;49.198;7.064;2024-03-06T09:01:28;13.60;99.90
7331;DHT22;3706;49.198;7.064;2024-03-06T09:03:55;12.90;99.90
7331;DHT22;3706;49.198;7.064;2024-03-06T09:06:22;12.10;99.90
7331;DHT22;3706;49.198;7.064;2024-03-06T09:08:49;11.60;99.90
7331;DHT22;3706;49.198;7.064;2024-03-06T09:11:16;11.30;99.90
7331;DHT22;3706;49.198;7.064;2024-03-06T09:13:45;11.30;99.90
7331;DHT22;3706;49.198;7.064;2024-03-06T09:16:12;11.40;99.90
7331;DHT22;3706;49.198;7.064;2024-03-06T09:18:39;11.40;99.90
7331;DHT22;3706;49.198;7.064;2024-03-06T09:21:05;11.20;99.90
7331;DHT22;3706;49.198;7.064;2024-03-06T09:23:32;11.10;99.90
7331;DHT22;3706;49.198;7.064;2024-03-06T09:26:00;10.90;99.90
7331;DHT22;3706;49.198;7.064;2024-03-06T09:28:26;10.70;99.90
7331;DHT22;3706;49.198;7.064;2024-03-06T09:30:55;10.50;99.90
7331;DHT22;3706;49.198;7.064;2024-03-06T09:33:22;10.30;99.90
7331;DHT22;3706;49.198;7.064;2024-03-06T09:35:49;10.20;99.90
7331;DHT22;3706;49.198;7.064;2024-03-06T09:38:16;10.30;99.90
7331;DHT22;3706;49.198;7.064;2024-03-06T09:40:43;10.30;99.90
7331;DHT22;3706;49.198;7.064;2024-03-06T09:43:12;10.40;99.90
7331;DHT22;3706;49.198;7.064;2024-03-06T09:45:39;10.60;99.90
7331;DHT22;3706;49.198;7.064;2024-03-06T09:48:08;11.10;99.90
7331;DHT22;3706;49.198;7.064;2024-03-06T09:50:36;11.50;99.90
7331;DHT22;3706;49.198;7.064;2024-03-06T09:53:08;11.80;99.90
7331;DHT22;3706;49.198;7.064;2024-03-06T09:55:36;12.00;99.90
7331;DHT22;3706;49.198;7.064;2024-03-06T09:58:04;12.30;99.90
7331;DHT22;3706;49.198;7.064;2024-03-06T10:00:32;12.70;99.90
7331;DHT22;3706;49.198;7.064;2024-03-06T10:03:00;13.30;99.90
7331;DHT22;3706;49.198;7.064;2024-03-06T10:05:30;13.70;99.90
7331;DHT22;3706;49.198;7.064;2024-03-06T10:08:00;13.90;99.90
7331;DHT22;3706;49.198;7.064;2024-03-06T10:10:27;14.10;99.90
7331;DHT22;3706;49.198;7.064;2024-03-06T10:12:54;14.10;99.90
7331;DHT22;3706;49.198;7.064;2024-03-06T10:15:22;14.00;99.90
7331;DHT22;3706;49.198;7.064;2024-03-06T10:17:52;13.90;99.90
7331;DHT22;3706;49.198;7.064;2024-03-06T10:20:20;14.20;99.90
7331;DHT22;3706;49.198;7.064;2024-03-06T10:22:50;14.70;99.90
7331;DHT22;3706;49.198;7.064;2024-03-06T10:25:19;14.50;99.90
7331;DHT22;3706;49.198;7.064;2024-03-06T10:27:47;14.50;99.90
7331;DHT22;3706;49.198;7.064;2024-03-06T10:30:27;14.60;99.90
7331;DHT22;3706;49.198;7.064;2024-03-06T10:32:54;14.30;99.90
7331;DHT22;3706;49.198;7.064;2024-03-06T10:35:21;14.00;99.90
7331;DHT22;3706;49.198;7.064;2024-03-06T10:37:53;13.90;99.90
7331;DHT22;3706;49.198;7.064;2024-03-06T10:40:22;13.80;99.90
7331;DHT22;3706;49.198;7.064;2024-03-06T10:42:50;13.50;99.90
7331;DHT22;3706;49.198;7.064;2024-03-06T10:45:19;13.10;99.90
7331;DHT22;3706;49.198;7.064;2024-03-06T10:47:48;12.80;99.90
7331;DHT22;3706;49.198;7.064;2024-03-06T10:50:16;12.50;99.90
7331;DHT22;3706;49.198;7.064;2024-03-06T10:52:44;12.30;99.90
7331;DHT22;3706;49.198;7.064;2024-03-06T10:55:15;12.30;99.90
7331;DHT22;3706;49.198;7.064;2024-03-06T10:57:43;12.50;99.90
7331;DHT22;3706;49.198;7.064;2024-03-06T11:00:11;12.80;99.90
7331;DHT22;3706;49.198;7.064;2024-03-06T11:02:45;13.30;99.90
7331;DHT22;3706;49.198;7.064;2024-03-06T11:05:14;13.90;99.90
7331;DHT22;3706;49.198;7.064;2024-03-06T11:07:41;14.20;99.90
7331;DHT22;3706;49.198;7.064;2024-03-06T11:10:09;14.40;99.90
7331;DHT22;3706;49.198;7.064;2024-03-06T11:12:43;14.60;99.90
7331;DHT22;3706;49.198;7.064;2024-03-06T11:15:14;14.90;99.90
7331;DHT22;3706;49.198;7.064;2024-03-06T11:17:41;15.00;99.90
7331;DHT22;3706;49.198;7.064;2024-03-06T11:20:12;14.70;99.90
7331;DHT22;3706;49.198;7.064;2024-03-06T11:23:02;14.40;99.90
7331;DHT22;3706;49.198;7.064;2024-03-06T11:26:02;14.30;99.90
7331;DHT22;3706;49.198;7.064;2024-03-06T11:28:32;14.60;99.90
7331;DHT22;3706;49.198;7.064;2024-03-06T11:31:00;15.20;99.90
7331;DHT22;3706;49.198;7.064;2024-03-06T11:33:38;15.80;99.90
7331;DHT22;3706;49.198;7.064;2024-03-06T11:36:23;16.20;99.90
7331;DHT22;3706;49.198;7.064;2024-03-06T11:38:52;16.50;99.90
7331;DHT22;3706;49.198;7.064;2024-03-06T11:41:20;16.70;99.70
7331;DHT22;3706;49.198;7.064;2024-03-06T11:43:50;17.10;99.20
7331;DHT22;3706;49.198;7.064;2024-03-06T11:46:19;17.50;98.50
7331;DHT22;3706;49.198;7.064;2024-03-06T11:48:52;17.60;96.80
7331;DHT22;3706;49.198;7.064;2024-03-06T11:51:20;17.10;97.00
7331;DHT22;3706;49.198;7.064;2024-03-06T11:53:49;16.50;97.00
7331;DHT22;3706;49.198;7.064;2024-03-06T11:56:18;16.00;98.40
7331;DHT22;3706;49.198;7.064;2024-03-06T11:58:46;15.90;97.30
7331;DHT22;3706;49.198;7.064;2024-03-06T12:01:15;15.80;97.10
7331;DHT22;3706;49.198;7.064;2024-03-06T12:03:42;15.70;98.00
7331;DHT22;3706;49.198;7.064;2024-03-06T12:06:10;15.60;97.00
7331;DHT22;3706;49.198;7.064;2024-03-06T12:08:39;15.40;96.80
7331;DHT22;3706;49.198;7.064;2024-03-06T12:11:06;15.00;97.10
7331;DHT22;3706;49.198;7.064;2024-03-06T12:13:33;14.60;96.80
7331;DHT22;3706;49.198;7.064;2024-03-06T12:16:05;14.20;96.80
7331;DHT22;3706;49.198;7.064;2024-03-06T12:18:34;14.00;98.50
7331;DHT22;3706;49.198;7.064;2024-03-06T12:21:02;13.90;96.70
7331;DHT22;3706;49.198;7.064;2024-03-06T12:23:29;13.90;96.50
7331;DHT22;3706;49.198;7.064;2024-03-06T12:26:03;13.80;96.10
7331;DHT22;3706;49.198;7.064;2024-03-06T12:28:30;13.80;96.80
7331;DHT22;3706;49.198;7.064;2024-03-06T12:30:57;13.90;96.30
7331;DHT22;3706;49.198;7.064;2024-03-06T12:33:26;14.00;96.70
7331;DHT22;3706;49.198;7.064;2024-03-06T12:36:03;14.10;95.60
7331;DHT22;3706;49.198;7.064;2024-03-06T12:38:30;14.20;95.60
7331;DHT22;3706;49.198;7.064;2024-03-06T12:40:57;14.20;95.40
7331;DHT22;3706;49.198;7.064;2024-03-06T12:43:25;14.20;95.40
7331;DHT22;3706;49.198;7.064;2024-03-06T12:45:52;14.10;95.60
7331;DHT22;3706;49.198;7.064;2024-03-06T12:48:20;13.90;96.50
7331;DHT22;3706;49.198;7.064;2024-03-06T12:50:47;13.90;96.20
7331;DHT22;3706;49.198;7.064;2024-03-06T12:53:19;13.60;96.10
7331;DHT22;3706;49.198;7.064;2024-03-06T12:55:47;13.30;96.80
7331;DHT22;3706;49.198;7.064;2024-03-06T12:58:14;13.10;96.90
7331;DHT22;3706;49.198;7.064;2024-03-06T13:00:41;12.90;97.50
7331;DHT22;3706;49.198;7.064;2024-03-06T13:03:08;12.70;96.80
7331;DHT22;3706;49.198;7.064;2024-03-06T13:05:35;12.50;98.00
7331;DHT22;3706;49.198;7.064;2024-03-06T13:08:03;12.30;98.80
7331;DHT22;3706;49.198;7.064;2024-03-06T13:10:31;12.10;99.30
7331;DHT22;3706;49.198;7.064;2024-03-06T13:12:58;11.80;99.70
7331;DHT22;3706;49.198;7.064;2024-03-06T13:15:26;11.50;99.90
7331;DHT22;3706;49.198;7.064;2024-03-06T13:17:53;11.20;99.90
7331;DHT22;3706;49.198;7.064;2024-03-06T13:20:19;11.20;99.90
7331;DHT22;3706;49.198;7.064;2024-03-06T13:22:46;11.10;99.90
7331;DHT22;3706;49.198;7.064;2024-03-06T13:25:13;11.00;99.90
7331;DHT22;3706;49.198;7.064;2024-03-06T13:27:42;11.00;99.90
7331;DHT22;3706;49.198;7.064;2024-03-06T13:30:09;11.00;99.90
7331;DHT22;3706;49.198;7.064;2024-03-06T13:32:38;11.00;99.90
7331;DHT22;3706;49.198;7.064;2024-03-06T13:35:05;11.10;99.90
7331;DHT22;3706;49.198;7.064;2024-03-06T13:37:37;11.20;99.90
7331;DHT22;3706;49.198;7.064;2024-03-06T13:40:05;11.30;99.90
7331;DHT22;3706;49.198;7.064;2024-03-06T13:42:34;11.50;99.90
7331;DHT22;3706;49.198;7.064;2024-03-06T13:45:03;11.60;99.90
7331;DHT22;3706;49.198;7.064;2024-03-06T13:47:31;11.70;99.90
7331;DHT22;3706;49.198;7.064;2024-03-06T13:49:58;11.90;99.90
7331;DHT22;3706;49.198;7.064;2024-03-06T13:52:25;12.00;99.90
7331;DHT22;3706;49.198;7.064;2024-03-06T13:54:52;12.20;99.90
7331;DHT22;3706;49.198;7.064;2024-03-06T13:57:19;12.30;99.90
7331;DHT22;3706;49.198;7.064;2024-03-06T13:59:46;12.40;99.90
7331;DHT22;3706;49.198;7.064;2024-03-06T14:02:15;12.60;99.90
7331;DHT22;3706;49.198;7.064;2024-03-06T14:04:41;12.70;99.90
7331;DHT22;3706;49.198;7.064;2024-03-06T14:07:09;12.70;99.90
7331;DHT22;3706;49.198;7.064;2024-03-06T14:09:36;12.80;99.90
7331;DHT22;3706;49.198;7.064;2024-03-06T14:12:04;12.80;99.90
7331;DHT22;3706;49.198;7.064;2024-03-06T14:14:31;12.90;99.90
7331;DHT22;3706;49.198;7.064;2024-03-06T14:16:58;12.90;99.90
7331;DHT22;3706;49.198;7.064;2024-03-06T14:19:26;12.90;99.90
7331;DHT22;3706;49.198;7.064;2024-03-06T14:21:53;13.00;99.40
7331;DHT22;3706;49.198;7.064;2024-03-06T14:24:20;13.00;98.80
7331;DHT22;3706;49.198;7.064;2024-03-06T14:26:47;13.10;99.10
7331;DHT22;3706;49.198;7.064;2024-03-06T14:29:15;13.10;99.00
7331;DHT22;3706;49.198;7.064;2024-03-06T14:31:42;13.10;98.50
7331;DHT22;3706;49.198;7.064;2024-03-06T14:34:09;12.90;97.80
7331;DHT22;3706;49.198;7.064;2024-03-06T14:36:39;12.80;98.30
7331;DHT22;3706;49.198;7.064;2024-03-06T14:39:07;12.70;99.30
7331;DHT22;3706;49.198;7.064;2024-03-06T14:41:35;12.60;99.10
7331;DHT22;3706;49.198;7.064;2024-03-06T14:44:02;12.60;98.60
7331;DHT22;3706;49.198;7.064;2024-03-06T14:46:29;12.60;98.90
7331;DHT22;3706;49.198;7.064;2024-03-06T14:48:56;12.60;98.50
7331;DHT22;3706;49.198;7.064;2024-03-06T14:51:23;12.50;97.90
7331;DHT22;3706;49.198;7.064;2024-03-06T14:53:52;12.40;98.40
7331;DHT22;3706;49.198;7.064;2024-03-06T14:56:19;12.30;99.00
7331;DHT22;3706;49.198;7.064;2024-03-06T14:58:47;12.20;99.00
7331;DHT22;3706;49.198;7.064;2024-03-06T15:01:14;12.10;98.90
7331;DHT22;3706;49.198;7.064;2024-03-06T15:03:41;12.10;98.90
7331;DHT22;3706;49.198;7.064;2024-03-06T15:06:08;12.00;98.90
7331;DHT22;3706;49.198;7.064;2024-03-06T15:08:36;12.00;99.50
7331;DHT22;3706;49.198;7.064;2024-03-06T15:11:05;12.00;99.30
7331;DHT22;3706;49.198;7.064;2024-03-06T15:13:32;12.00;98.90
7331;DHT22;3706;49.198;7.064;2024-03-06T15:16:00;11.90;98.90
7331;DHT22;3706;49.198;7.064;2024-03-06T15:18:29;11.90;99.10
7331;DHT22;3706;49.198;7.064;2024-03-06T15:20:56;11.90;98.40
7331;DHT22;3706;49.198;7.064;2024-03-06T15:23:23;11.90;98.10
7331;DHT22;3706;49.198;7.064;2024-03-06T15:25:50;11.90;98.40
7331;DHT22;3706;49.198;7.064;2024-03-06T15:28:18;11.80;99.40
7331;DHT22;3706;49.198;7.064;2024-03-06T15:30:45;11.80;99.10
7331;DHT22;3706;49.198;7.064;2024-03-06T15:33:12;11.60;99.60
7331;DHT22;3706;49.198;7.064;2024-03-06T15:35:39;11.60;99.90
7331;DHT22;3706;49.198;7.064;2024-03-06T15:38:06;11.50;99.90
7331;DHT22;3706;49.198;7.064;2024-03-06T15:40:33;11.40;99.90
7331;DHT22;3706;49.198;7.064;2024-03-06T15:43:00;11.40;99.90
7331;DHT22;3706;49.198;7.064;2024-03-06T15:45:28;11.30;99.90
7331;DHT22;3706;49.198;7.064;2024-03-06T15:47:55;11.20;99.50
7331;DHT22;3706;49.198;7.064;2024-03-06T15:50:22;11.20;99.30
7331;DHT22;3706;49.198;7.064;2024-03-06T15:52:49;11.10;99.30
7331;DHT22;3706;49.198;7.064;2024-03-06T15:55:16;11.10;99.50
7331;DHT22;3706;49.198;7.064;2024-03-06T15:57:43;11.00;99.80
7331;DHT22;3706;49.198;7.064;2024-03-06T16:00:11;10.80;99.90
7331;DHT22;3706;49.198;7.064;2024-03-06T16:02:42;10.60;99.90
7331;DHT22;3706;49.198;7.064;2024-03-06T16:05:09;10.50;99.90
7331;DHT22;3706;49.198;7.064;2024-03-06T16:07:36;10.40;99.90
7331;DHT22;3706;49.198;7.064;2024-03-06T16:10:04;10.30;99.90
7331;DHT22;3706;49.198;7.064;2024-03-06T16:12:33;10.20;99.90